sensor_id;sensor_type;location;lat;lon;timestamp;temperature;humidity
997;DHT22;487;50.126;8.698;2024-01-15T00:02:23;-0.80;99.90
997;DHT22;487;50.126;8.698;2024-01-15T00:04:51;-0.80;99.90
997;DHT22;487;50.126;8.698;2024-01-15T00:07:20;-0.70;99.90
997;DHT22;487;50.126;8.698;2024-01-15T00:09:48;-0.70;99.90
997;DHT22;487;50.126;8.698;2024-01-15T00:12:16;-0.80;99.90
997;DHT22;487;50.126;8.698;2024-01-15T00:14:44;-0.80;99.90
997;DHT22;487;50.126;8.698;2024-01-15T00:17:12;-0.90;99.90
997;DHT22;487;50.126;8.698;2024-01-15T00:19:40;-0.90;99.90
997;DHT22;487;50.126;8.698;2024-01-15T00:22:08;-0.90;99.90
997;DHT22;487;50.126;8.698;2024-01-15T00:24:37;-0.80;99.90
997;DHT22;487;50.126;8.698;2024-01-15T00:27:05;-0.80;99.90
997;DHT22;487;50.126;8.698;2024-01-15T00:29:33;-0.90;99.90
997;DHT22;487;50.126;8.698;2024-01-15T00:32:01;-0.80;99.90
997;DHT22;487;50.126;8.698;2024-01-15T00:34:29;-0.80;99.90
997;DHT22;487;50.126;8.698;2024-01-15T00:36:57;-0.80;99.90
997;DHT22;487;50.126;8.698;2024-01-15T00:39:25;-0.80;99.90
997;DHT22;487;50.126;8.698;2024-01-15T00:41:54;-0.80;99.90
997;DHT22;487;50.126;8.698;2024-01-15T00:44:22;-0.80;99.90
997;DHT22;487;50.126;8.698;2024-01-15T00:46:50;-0.70;99.90
997;DHT22;487;50.126;8.698;2024-01-15T00:49:17;-0.70;99.90
997;DHT22;487;50.126;8.698;2024-01-15T00:51:45;-0.60;99.90
997;DHT22;487;50.126;8.698;2024-01-15T00:54:13;-0.60;99.90
997;DHT22;487;50.126;8.698;2024-01-15T00:56:41;-0.60;99.90
997;DHT22;487;50.126;8.698;2024-01-15T00:59:10;-0.50;99.90
997;DHT22;487;50.126;8.698;2024-01-15T01:01:41;-0.50;99.90
997;DHT22;487;50.126;8.698;2024-01-15T01:04:10;-0.50;99.90
997;DHT22;487;50.126;8.698;2024-01-15T01:06:38;-0.50;99.90
997;DHT22;487;50.126;8.698;2024-01-15T01:09:06;-0.50;99.90
997;DHT22;487;50.126;8.698;2024-01-15T01:11:34;-0.50;99.90
997;DHT22;487;50.126;8.698;2024-01-15T01:14:02;-0.50;99.90
997;DHT22;487;50.126;8.698;2024-01-15T01:16:31;-0.50;99.90
997;DHT22;487;50.126;8.698;2024-01-15T01:19:05;-0.50;99.90
997;DHT22;487;50.126;8.698;2024-01-15T01:21:34;-0.50;99.90
997;DHT22;487;50.126;8.698;2024-01-15T01:24:02;-0.50;99.90
997;DHT22;487;50.126;8.698;2024-01-15T01:26:30;-0.50;99.90
997;DHT22;487;50.126;8.698;2024-01-15T01:28:58;-0.40;99.90
997;DHT22;487;50.126;8.698;2024-01-15T01:31:25;-0.50;99.90
997;DHT22;487;50.126;8.698;2024-01-15T01:33:55;-0.50;99.90
997;DHT22;487;50.126;8.698;2024-01-15T01:36:23;-0.50;99.90
997;DHT22;487;50.126;8.698;2024-01-15T01:38:51;-0.60;99.90
997;DHT22;487;50.126;8.698;2024-01-15T01:41:19;-0.60;99.90
997;DHT22;487;50.126;8.698;2024-01-15T01:43:47;-0.60;99.90
997;DHT22;487;50.126;8.698;2024-01-15T01:46:15;-0.60;99.90
997;DHT22;487;50.126;8.698;2024-01-15T01:48:43;-0.60;99.90
997;DHT22;487;50.126;8.698;2024-01-15T01:51:13;-0.60;99.90
997;DHT22;487;50.126;8.698;2024-01-15T01:53:44;-0.60;99.90
997;DHT22;487;50.126;8.698;2024-01-15T01:56:12;-0.50;99.90
997;DHT22;487;50.126;8.698;2024-01-15T01:58:41;-0.50;99.90
997;DHT22;487;50.126;8.698;2024-01-15T02:01:09;-0.50;99.90
997;DHT22;487;50.126;8.698;2024-01-15T02:03:38;-0.50;99.90
997;DHT22;487;50.126;8.698;2024-01-15T02:06:08;-0.50;99.90
997;DHT22;487;50.126;8.698;2024-01-15T02:08:38;-0.40;99.90
997;DHT22;487;50.126;8.698;2024-01-15T02:11:06;-0.50;99.90
997;DHT22;487;50.126;8.698;2024-01-15T02:13:33;-0.50;99.90
997;DHT22;487;50.126;8.698;2024-01-15T02:16:01;-0.40;99.90
997;DHT22;487;50.126;8.698;2024-01-15T02:18:29;-0.40;99.90
997;DHT22;487;50.126;8.698;2024-01-15T02:21:06;-0.40;99.90
997;DHT22;487;50.126;8.698;2024-01-15T02:23:36;-0.30;99.90
997;DHT22;487;50.126;8.698;2024-01-15T02:26:05;-0.30;99.90
997;DHT22;487;50.126;8.698;2024-01-15T02:28:33;-0.30;99.90
997;DHT22;487;50.126;8.698;2024-01-15T02:31:01;-0.40;99.90
997;DHT22;487;50.126;8.698;2024-01-15T02:33:29;-0.40;99.90
997;DHT22;487;50.126;8.698;2024-01-15T02:35:57;-0.40;99.90
997;DHT22;487;50.126;8.698;2024-01-15T02:38:25;-0.40;99.90
997;DHT22;487;50.126;8.698;2024-01-15T02:40:55;-0.30;99.90
997;DHT22;487;50.126;8.698;2024-01-15T02:43:22;-0.40;99.90
997;DHT22;487;50.126;8.698;2024-01-15T02:45:50;-0.40;99.90
997;DHT22;487;50.126;8.698;2024-01-15T02:48:19;-0.50;99.90
997;DHT22;487;50.126;8.698;2024-01-15T02:50:47;-0.60;99.90
997;DHT22;487;50.126;8.698;2024-01-15T02:53:14;-0.60;99.90
997;DHT22;487;50.126;8.698;2024-01-15T02:55:42;-0.60;99.90
997;DHT22;487;50.126;8.698;2024-01-15T02:58:11;-0.50;99.90
997;DHT22;487;50.126;8.698;2024-01-15T03:00:39;-0.50;99.90
997;DHT22;487;50.126;8.698;2024-01-15T03:03:07;-0.50;99.90
997;DHT22;487;50.126;8.698;2024-01-15T03:05:36;-0.50;99.90
997;DHT22;487;50.126;8.698;2024-01-15T03:08:04;-0.50;99.90
997;DHT22;487;50.126;8.698;2024-01-15T03:10:32;-0.50;99.90
997;DHT22;487;50.126;8.698;2024-01-15T03:13:00;-0.50;99.90
997;DHT22;487;50.126;8.698;2024-01-15T03:15:29;-0.60;99.90
997;DHT22;487;50.126;8.698;2024-01-15T03:17:57;-0.50;99.90
997;DHT22;487;50.126;8.698;2024-01-15T03:20:25;-0.50;99.90
997;DHT22;487;50.126;8.698;2024-01-15T03:22:53;-0.50;99.90
997;DHT22;487;50.126;8.698;2024-01-15T03:25:21;-0.50;99.90
997;DHT22;487;50.126;8.698;2024-01-15T03:27:49;-0.40;99.90
997;DHT22;487;50.126;8.698;2024-01-15T03:30:17;-0.40;99.90
997;DHT22;487;50.126;8.698;2024-01-15T03:32:46;-0.30;99.90
997;DHT22;487;50.126;8.698;2024-01-15T03:35:16;-0.30;99.90
997;DHT22;487;50.126;8.698;2024-01-15T03:37:44;-0.20;99.90
997;DHT22;487;50.126;8.698;2024-01-15T03:40:12;-0.30;99.90
997;DHT22;487;50.126;8.698;2024-01-15T03:42:42;-0.50;99.90
997;DHT22;487;50.126;8.698;2024-01-15T03:45:10;-0.40;99.90
997;DHT22;487;50.126;8.698;2024-01-15T03:47:38;-0.40;99.90
997;DHT22;487;50.126;8.698;2024-01-15T03:50:08;1.30;99.90
997;DHT22;487;50.126;8.698;2024-01-15T03:52:36;-0.50;99.90
997;DHT22;487;50.126;8.698;2024-01-15T03:55:05;-0.50;99.90
997;DHT22;487;50.126;8.698;2024-01-15T03:57:33;-0.50;99.90
997;DHT22;487;50.126;8.698;2024-01-15T04:00:01;-0.40;99.90
997;DHT22;487;50.126;8.698;2024-01-15T04:02:30;-0.40;99.90
997;DHT22;487;50.126;8.698;2024-01-15T04:04:58;-0.40;99.90
997;DHT22;487;50.126;8.698;2024-01-15T04:07:27;-0.50;99.90
997;DHT22;487;50.126;8.698;2024-01-15T04:09:55;-0.50;99.90
997;DHT22;487;50.126;8.698;2024-01-15T04:12:23;-0.50;99.90
997;DHT22;487;50.126;8.698;2024-01-15T04:14:51;-0.60;99.90
997;DHT22;487;50.126;8.698;2024-01-15T04:17:19;-0.60;99.90
997;DHT22;487;50.126;8.698;2024-01-15T04:19:48;-0.50;99.90
997;DHT22;487;50.126;8.698;2024-01-15T04:22:16;-0.40;99.90
997;DHT22;487;50.126;8.698;2024-01-15T04:24:45;-0.30;99.90
997;DHT22;487;50.126;8.698;2024-01-15T04:27:13;-0.40;99.90
997;DHT22;487;50.126;8.698;2024-01-15T04:29:41;-0.50;99.90
997;DHT22;487;50.126;8.698;2024-01-15T04:32:11;-0.50;99.90
997;DHT22;487;50.126;8.698;2024-01-15T04:34:39;-0.50;99.90
997;DHT22;487;50.126;8.698;2024-01-15T04:37:07;-0.40;99.90
997;DHT22;487;50.126;8.698;2024-01-15T04:39:34;-0.40;99.90
997;DHT22;487;50.126;8.698;2024-01-15T04:42:04;-0.30;99.90
997;DHT22;487;50.126;8.698;2024-01-15T04:44:32;-0.40;99.90
997;DHT22;487;50.126;8.698;2024-01-15T04:47:00;-0.40;99.90
997;DHT22;487;50.126;8.698;2024-01-15T04:49:28;-0.40;99.90
997;DHT22;487;50.126;8.698;2024-01-15T04:51:56;-0.40;99.90
997;DHT22;487;50.126;8.698;2024-01-15T04:54:24;-0.40;99.90
997;DHT22;487;50.126;8.698;2024-01-15T04:56:52;-0.50;99.90
997;DHT22;487;50.126;8.698;2024-01-15T04:59:21;-0.50;99.90
997;DHT22;487;50.126;8.698;2024-01-15T05:01:49;-0.50;99.90
997;DHT22;487;50.126;8.698;2024-01-15T05:04:17;-0.50;99.90
997;DHT22;487;50.126;8.698;2024-01-15T05:06:45;-0.50;99.90
997;DHT22;487;50.126;8.698;2024-01-15T05:09:13;-0.50;99.90
997;DHT22;487;50.126;8.698;2024-01-15T05:11:41;-0.50;99.90
997;DHT22;487;50.126;8.698;2024-01-15T05:14:09;-0.50;99.90
997;DHT22;487;50.126;8.698;2024-01-15T05:16:39;-0.40;99.90
997;DHT22;487;50.126;8.698;2024-01-15T05:19:07;-0.40;99.90
997;DHT22;487;50.126;8.698;2024-01-15T05:21:35;-0.30;99.90
997;DHT22;487;50.126;8.698;2024-01-15T05:24:03;-0.30;99.90
997;DHT22;487;50.126;8.698;2024-01-15T05:26:31;-0.40;99.90
997;DHT22;487;50.126;8.698;2024-01-15T05:28:59;-0.40;99.90
997;DHT22;487;50.126;8.698;2024-01-15T05:31:27;-0.40;99.90
997;DHT22;487;50.126;8.698;2024-01-15T05:33:57;-0.40;99.90
997;DHT22;487;50.126;8.698;2024-01-15T05:36:25;-0.30;99.90
997;DHT22;487;50.126;8.698;2024-01-15T05:38:52;-0.40;99.90
997;DHT22;487;50.126;8.698;2024-01-15T05:43:48;-0.30;99.90
997;DHT22;487;50.126;8.698;2024-01-15T05:46:16;-0.20;99.90
997;DHT22;487;50.126;8.698;2024-01-15T05:48:44;-0.20;99.90
997;DHT22;487;50.126;8.698;2024-01-15T05:51:13;-0.20;99.90
997;DHT22;487;50.126;8.698;2024-01-15T05:53:41;-0.30;99.90
997;DHT22;487;50.126;8.698;2024-01-15T05:56:10;-0.30;99.90
997;DHT22;487;50.126;8.698;2024-01-15T05:58:38;-0.30;99.90
997;DHT22;487;50.126;8.698;2024-01-15T06:01:06;-0.30;99.90
997;DHT22;487;50.126;8.698;2024-01-15T06:03:34;-0.40;99.90
997;DHT22;487;50.126;8.698;2024-01-15T06:06:02;-0.40;99.90
997;DHT22;487;50.126;8.698;2024-01-15T06:08:32;-0.40;99.90
997;DHT22;487;50.126;8.698;2024-01-15T06:11:00;-0.40;99.90
997;DHT22;487;50.126;8.698;2024-01-15T06:13:28;-0.30;99.90
997;DHT22;487;50.126;8.698;2024-01-15T06:15:56;-0.30;99.90
997;DHT22;487;50.126;8.698;2024-01-15T06:18:24;-0.30;99.90
997;DHT22;487;50.126;8.698;2024-01-15T06:20:52;-0.40;99.90
997;DHT22;487;50.126;8.698;2024-01-15T06:23:20;-0.30;99.90
997;DHT22;487;50.126;8.698;2024-01-15T06:25:49;-0.30;99.90
997;DHT22;487;50.126;8.698;2024-01-15T06:28:17;-0.30;99.90
997;DHT22;487;50.126;8.698;2024-01-15T06:30:45;-0.30;99.90
997;DHT22;487;50.126;8.698;2024-01-15T06:33:13;-0.40;99.90
997;DHT22;487;50.126;8.698;2024-01-15T06:35:41;-0.40;99.90
997;DHT22;487;50.126;8.698;2024-01-15T06:38:09;-0.40;99.90
997;DHT22;487;50.126;8.698;2024-01-15T06:40:36;-0.40;99.90
997;DHT22;487;50.126;8.698;2024-01-15T06:43:07;-0.30;99.90
997;DHT22;487;50.126;8.698;2024-01-15T06:45:35;1.60;99.90
997;DHT22;487;50.126;8.698;2024-01-15T06:48:04;-0.30;99.90
997;DHT22;487;50.126;8.698;2024-01-15T06:50:32;-0.30;99.90
997;DHT22;487;50.126;8.698;2024-01-15T06:53:00;-0.30;99.90
997;DHT22;487;50.126;8.698;2024-01-15T06:55:28;-0.30;99.90
997;DHT22;487;50.126;8.698;2024-01-15T06:57:56;-0.40;99.90
997;DHT22;487;50.126;8.698;2024-01-15T07:00:26;-0.30;99.90
997;DHT22;487;50.126;8.698;2024-01-15T07:02:54;-0.30;99.90
997;DHT22;487;50.126;8.698;2024-01-15T07:05:23;-0.30;99.90
997;DHT22;487;50.126;8.698;2024-01-15T07:07:51;-0.20;99.90
997;DHT22;487;50.126;8.698;2024-01-15T07:10:19;-0.10;99.90
997;DHT22;487;50.126;8.698;2024-01-15T07:12:47;0.00;99.90
997;DHT22;487;50.126;8.698;2024-01-15T07:15:15;0.10;99.90
997;DHT22;487;50.126;8.698;2024-01-15T07:17:44;0.10;99.90
997;DHT22;487;50.126;8.698;2024-01-15T07:20:12;0.10;99.90
997;DHT22;487;50.126;8.698;2024-01-15T07:22:40;0.10;99.90
997;DHT22;487;50.126;8.698;2024-01-15T07:25:08;0.10;99.90
997;DHT22;487;50.126;8.698;2024-01-15T07:27:36;0.20;99.90
997;DHT22;487;50.126;8.698;2024-01-15T07:30:05;0.20;99.90
997;DHT22;487;50.126;8.698;2024-01-15T07:32:33;0.20;99.90
997;DHT22;487;50.126;8.698;2024-01-15T07:35:03;0.20;99.90
997;DHT22;487;50.126;8.698;2024-01-15T07:37:31;0.10;99.90
997;DHT22;487;50.126;8.698;2024-01-15T07:40:00;0.10;99.90
997;DHT22;487;50.126;8.698;2024-01-15T07:42:28;0.10;99.90
997;DHT22;487;50.126;8.698;2024-01-15T07:44:56;0.00;99.90
997;DHT22;487;50.126;8.698;2024-01-15T07:47:24;0.10;99.90
997;DHT22;487;50.126;8.698;2024-01-15T07:49:52;0.10;99.90
997;DHT22;487;50.126;8.698;2024-01-15T07:52:22;0.10;99.90
997;DHT22;487;50.126;8.698;2024-01-15T07:54:50;0.20;99.90
997;DHT22;487;50.126;8.698;2024-01-15T07:57:18;0.10;99.90
997;DHT22;487;50.126;8.698;2024-01-15T07:59:46;0.10;99.90
997;DHT22;487;50.126;8.698;2024-01-15T08:02:14;0.20;99.90
997;DHT22;487;50.126;8.698;2024-01-15T08:04:42;0.30;99.90
997;DHT22;487;50.126;8.698;2024-01-15T08:07:11;0.30;99.90
997;DHT22;487;50.126;8.698;2024-01-15T08:09:41;0.30;99.90
997;DHT22;487;50.126;8.698;2024-01-15T08:12:09;0.30;99.90
997;DHT22;487;50.126;8.698;2024-01-15T08:14:38;0.40;99.90
997;DHT22;487;50.126;8.698;2024-01-15T08:17:06;0.30;99.90
997;DHT22;487;50.126;8.698;2024-01-15T08:19:34;0.30;99.90
997;DHT22;487;50.126;8.698;2024-01-15T08:22:02;0.30;99.90
997;DHT22;487;50.126;8.698;2024-01-15T08:24:30;0.20;99.90
997;DHT22;487;50.126;8.698;2024-01-15T08:26:59;0.20;99.90
997;DHT22;487;50.126;8.698;2024-01-15T08:29:27;0.20;99.90
997;DHT22;487;50.126;8.698;2024-01-15T08:31:55;0.30;99.90
997;DHT22;487;50.126;8.698;2024-01-15T08:34:23;0.30;99.90
997;DHT22;487;50.126;8.698;2024-01-15T08:36:54;0.40;99.90
997;DHT22;487;50.126;8.698;2024-01-15T08:39:22;0.40;99.90
997;DHT22;487;50.126;8.698;2024-01-15T08:41:49;0.40;99.90
997;DHT22;487;50.126;8.698;2024-01-15T08:44:19;0.40;99.90
997;DHT22;487;50.126;8.698;2024-01-15T08:46:47;0.40;99.90
997;DHT22;487;50.126;8.698;2024-01-15T08:49:14;0.40;99.90
997;DHT22;487;50.126;8.698;2024-01-15T08:51:42;0.50;99.90
997;DHT22;487;50.126;8.698;2024-01-15T08:54:10;0.50;99.90
997;DHT22;487;50.126;8.698;2024-01-15T08:56:38;0.50;99.90
997;DHT22;487;50.126;8.698;2024-01-15T08:59:06;0.50;99.90
997;DHT22;487;50.126;8.698;2024-01-15T09:01:36;0.50;99.90
997;DHT22;487;50.126;8.698;2024-01-15T09:04:06;0.50;99.90
997;DHT22;487;50.126;8.698;2024-01-15T09:06:34;0.50;99.90
997;DHT22;487;50.126;8.698;2024-01-15T09:09:02;0.50;99.90
997;DHT22;487;50.126;8.698;2024-01-15T09:11:31;0.50;99.90
997;DHT22;487;50.126;8.698;2024-01-15T09:13:59;0.60;99.90
997;DHT22;487;50.126;8.698;2024-01-15T09:16:27;0.70;99.90
997;DHT22;487;50.126;8.698;2024-01-15T09:18:56;0.70;99.90
997;DHT22;487;50.126;8.698;2024-01-15T09:21:25;0.80;99.90
997;DHT22;487;50.126;8.698;2024-01-15T09:23:53;0.80;99.90
997;DHT22;487;50.126;8.698;2024-01-15T09:26:20;0.80;99.90
997;DHT22;487;50.126;8.698;2024-01-15T09:28:48;0.80;99.90
997;DHT22;487;50.126;8.698;2024-01-15T09:31:16;0.80;99.90
997;DHT22;487;50.126;8.698;2024-01-15T09:33:46;0.80;99.90
997;DHT22;487;50.126;8.698;2024-01-15T09:36:16;0.90;99.90
997;DHT22;487;50.126;8.698;2024-01-15T09:38:44;1.00;99.90
997;DHT22;487;50.126;8.698;2024-01-15T09:41:12;1.10;99.90
997;DHT22;487;50.126;8.698;2024-01-15T09:43:40;1.10;99.90
997;DHT22;487;50.126;8.698;2024-01-15T09:46:08;1.20;99.90
997;DHT22;487;50.126;8.698;2024-01-15T09:48:36;1.20;99.90
997;DHT22;487;50.126;8.698;2024-01-15T09:51:06;1.30;99.90
997;DHT22;487;50.126;8.698;2024-01-15T09:53:36;1.40;99.90
997;DHT22;487;50.126;8.698;2024-01-15T09:56:05;1.50;99.90
997;DHT22;487;50.126;8.698;2024-01-15T09:58:34;1.50;99.90
997;DHT22;487;50.126;8.698;2024-01-15T10:01:03;1.60;99.90
997;DHT22;487;50.126;8.698;2024-01-15T10:03:34;1.50;99.90
997;DHT22;487;50.126;8.698;2024-01-15T10:06:03;1.50;99.90
997;DHT22;487;50.126;8.698;2024-01-15T10:08:32;1.60;99.90
997;DHT22;487;50.126;8.698;2024-01-15T10:11:01;1.70;99.90
997;DHT22;487;50.126;8.698;2024-01-15T10:13:31;1.70;99.90
997;DHT22;487;50.126;8.698;2024-01-15T10:16:00;1.70;99.90
997;DHT22;487;50.126;8.698;2024-01-15T10:18:29;1.70;99.90
997;DHT22;487;50.126;8.698;2024-01-15T10:20:58;1.80;99.90
997;DHT22;487;50.126;8.698;2024-01-15T10:23:26;1.80;99.90
997;DHT22;487;50.126;8.698;2024-01-15T10:25:54;1.70;99.90
997;DHT22;487;50.126;8.698;2024-01-15T10:28:27;1.60;99.90
997;DHT22;487;50.126;8.698;2024-01-15T10:30:58;1.70;99.90
997;DHT22;487;50.126;8.698;2024-01-15T10:33:27;1.70;99.90
997;DHT22;487;50.126;8.698;2024-01-15T10:35:56;1.60;99.90
997;DHT22;487;50.126;8.698;2024-01-15T10:38:24;1.50;99.90
997;DHT22;487;50.126;8.698;2024-01-15T10:40:53;1.50;99.90
997;DHT22;487;50.126;8.698;2024-01-15T10:43:22;1.40;99.90
997;DHT22;487;50.126;8.698;2024-01-15T10:45:56;1.50;99.90
997;DHT22;487;50.126;8.698;2024-01-15T10:48:24;1.50;99.90
997;DHT22;487;50.126;8.698;2024-01-15T10:50:55;1.60;99.90
997;DHT22;487;50.126;8.698;2024-01-15T10:53:24;1.60;99.90
997;DHT22;487;50.126;8.698;2024-01-15T10:55:52;1.50;99.90
997;DHT22;487;50.126;8.698;2024-01-15T10:58:21;1.50;99.90
997;DHT22;487;50.126;8.698;2024-01-15T11:00:50;1.60;99.90
997;DHT22;487;50.126;8.698;2024-01-15T11:03:19;1.70;99.90
997;DHT22;487;50.126;8.698;2024-01-15T11:05:48;1.70;99.90
997;DHT22;487;50.126;8.698;2024-01-15T11:08:17;1.70;99.90
997;DHT22;487;50.126;8.698;2024-01-15T11:10:47;1.90;99.90
997;DHT22;487;50.126;8.698;2024-01-15T11:13:20;1.90;99.90
997;DHT22;487;50.126;8.698;2024-01-15T11:15:56;2.10;99.90
997;DHT22;487;50.126;8.698;2024-01-15T11:18:26;2.10;99.90
997;DHT22;487;50.126;8.698;2024-01-15T11:21:22;2.30;99.90
997;DHT22;487;50.126;8.698;2024-01-15T11:23:53;2.20;99.90
997;DHT22;487;50.126;8.698;2024-01-15T11:26:34;2.20;99.90
997;DHT22;487;50.126;8.698;2024-01-15T11:29:03;2.20;99.90
997;DHT22;487;50.126;8.698;2024-01-15T11:32:02;2.30;99.90
997;DHT22;487;50.126;8.698;2024-01-15T11:34:55;2.20;99.90
997;DHT22;487;50.126;8.698;2024-01-15T11:37:27;2.20;99.90
997;DHT22;487;50.126;8.698;2024-01-15T11:39:56;2.30;99.90
997;DHT22;487;50.126;8.698;2024-01-15T11:42:28;2.30;99.90
997;DHT22;487;50.126;8.698;2024-01-15T11:44:57;2.40;99.90
997;DHT22;487;50.126;8.698;2024-01-15T11:50:34;2.50;99.90
997;DHT22;487;50.126;8.698;2024-01-15T11:53:03;2.50;99.90
997;DHT22;487;50.126;8.698;2024-01-15T11:55:34;2.50;99.90
997;DHT22;487;50.126;8.698;2024-01-15T11:58:06;2.50;99.90
997;DHT22;487;50.126;8.698;2024-01-15T12:00:39;2.50;99.90
997;DHT22;487;50.126;8.698;2024-01-15T12:03:09;2.60;99.90
997;DHT22;487;50.126;8.698;2024-01-15T12:05:39;2.50;99.90
997;DHT22;487;50.126;8.698;2024-01-15T12:08:08;2.50;99.90
997;DHT22;487;50.126;8.698;2024-01-15T12:10:38;2.50;99.90
997;DHT22;487;50.126;8.698;2024-01-15T12:13:10;2.50;99.90
997;DHT22;487;50.126;8.698;2024-01-15T12:15:39;2.40;99.90
997;DHT22;487;50.126;8.698;2024-01-15T12:18:09;2.40;99.90
997;DHT22;487;50.126;8.698;2024-01-15T12:20:41;2.40;99.90
997;DHT22;487;50.126;8.698;2024-01-15T12:23:10;-0.30;99.90
997;DHT22;487;50.126;8.698;2024-01-15T12:25:39;2.30;99.90
997;DHT22;487;50.126;8.698;2024-01-15T12:28:06;2.30;99.90
997;DHT22;487;50.126;8.698;2024-01-15T12:30:35;2.30;99.90
997;DHT22;487;50.126;8.698;2024-01-15T12:33:05;2.40;99.90
997;DHT22;487;50.126;8.698;2024-01-15T12:35:34;2.30;99.90
997;DHT22;487;50.126;8.698;2024-01-15T12:38:03;2.30;99.90
997;DHT22;487;50.126;8.698;2024-01-15T12:43:05;2.20;99.90
997;DHT22;487;50.126;8.698;2024-01-15T12:45:34;2.20;99.90
997;DHT22;487;50.126;8.698;2024-01-15T12:48:05;2.30;99.90
997;DHT22;487;50.126;8.698;2024-01-15T12:50:33;2.30;99.90
997;DHT22;487;50.126;8.698;2024-01-15T12:53:03;2.40;99.90
997;DHT22;487;50.126;8.698;2024-01-15T12:55:31;2.40;99.90
997;DHT22;487;50.126;8.698;2024-01-15T13:00:29;2.40;99.90
997;DHT22;487;50.126;8.698;2024-01-15T13:02:57;2.40;99.90
997;DHT22;487;50.126;8.698;2024-01-15T13:05:27;2.50;99.90
997;DHT22;487;50.126;8.698;2024-01-15T13:07:56;2.50;99.90
997;DHT22;487;50.126;8.698;2024-01-15T13:10:25;2.50;99.90
997;DHT22;487;50.126;8.698;2024-01-15T13:12:56;2.60;99.90
997;DHT22;487;50.126;8.698;2024-01-15T13:15:24;2.60;99.90
997;DHT22;487;50.126;8.698;2024-01-15T13:17:53;2.60;99.90
997;DHT22;487;50.126;8.698;2024-01-15T13:20:21;2.60;99.90
997;DHT22;487;50.126;8.698;2024-01-15T13:22:49;2.70;99.90
997;DHT22;487;50.126;8.698;2024-01-15T13:25:17;2.80;99.90
997;DHT22;487;50.126;8.698;2024-01-15T13:27:46;2.80;99.90
997;DHT22;487;50.126;8.698;2024-01-15T13:30:14;2.80;99.90
997;DHT22;487;50.126;8.698;2024-01-15T13:32:42;2.90;99.90
997;DHT22;487;50.126;8.698;2024-01-15T13:35:10;2.90;99.90
997;DHT22;487;50.126;8.698;2024-01-15T13:37:40;2.90;99.90
997;DHT22;487;50.126;8.698;2024-01-15T13:40:09;2.80;99.90
997;DHT22;487;50.126;8.698;2024-01-15T13:42:45;2.70;99.90
997;DHT22;487;50.126;8.698;2024-01-15T13:45:14;2.70;99.90
997;DHT22;487;50.126;8.698;2024-01-15T13:47:42;2.70;99.90
997;DHT22;487;50.126;8.698;2024-01-15T13:50:11;2.70;99.90
997;DHT22;487;50.126;8.698;2024-01-15T13:52:39;2.80;99.90
997;DHT22;487;50.126;8.698;2024-01-15T13:55:08;2.80;99.90
997;DHT22;487;50.126;8.698;2024-01-15T13:57:36;2.80;99.90
997;DHT22;487;50.126;8.698;2024-01-15T14:00:07;2.80;99.90
997;DHT22;487;50.126;8.698;2024-01-15T14:05:07;2.80;99.90
997;DHT22;487;50.126;8.698;2024-01-15T14:10:04;2.80;99.90
997;DHT22;487;50.126;8.698;2024-01-15T14:12:33;2.80;99.90
997;DHT22;487;50.126;8.698;2024-01-15T14:15:03;2.80;99.90
997;DHT22;487;50.126;8.698;2024-01-15T14:20:02;2.80;99.90
997;DHT22;487;50.126;8.698;2024-01-15T14:25:00;2.80;99.90
997;DHT22;487;50.126;8.698;2024-01-15T14:27:28;2.80;99.90
997;DHT22;487;50.126;8.698;2024-01-15T14:29:56;2.90;99.90
997;DHT22;487;50.126;8.698;2024-01-15T14:32:24;2.90;99.90
997;DHT22;487;50.126;8.698;2024-01-15T14:34:53;2.90;99.90
997;DHT22;487;50.126;8.698;2024-01-15T14:37:21;2.90;99.90
997;DHT22;487;50.126;8.698;2024-01-15T14:39:49;2.90;99.90
997;DHT22;487;50.126;8.698;2024-01-15T14:42:18;2.90;99.90
997;DHT22;487;50.126;8.698;2024-01-15T14:44:46;3.00;99.90
997;DHT22;487;50.126;8.698;2024-01-15T14:47:14;3.00;99.90
997;DHT22;487;50.126;8.698;2024-01-15T14:49:42;3.00;99.90
997;DHT22;487;50.126;8.698;2024-01-15T14:52:11;3.10;99.90
997;DHT22;487;50.126;8.698;2024-01-15T14:54:39;3.00;99.90
997;DHT22;487;50.126;8.698;2024-01-15T14:57:08;3.00;99.90
997;DHT22;487;50.126;8.698;2024-01-15T14:59:35;3.00;99.90
997;DHT22;487;50.126;8.698;2024-01-15T15:02:04;3.00;99.90
997;DHT22;487;50.126;8.698;2024-01-15T15:04:38;3.00;99.90
997;DHT22;487;50.126;8.698;2024-01-15T15:07:06;3.10;99.90
997;DHT22;487;50.126;8.698;2024-01-15T15:09:35;3.00;99.90
997;DHT22;487;50.126;8.698;2024-01-15T15:12:05;3.00;99.90
997;DHT22;487;50.126;8.698;2024-01-15T15:14:32;3.00;99.90
997;DHT22;487;50.126;8.698;2024-01-15T15:17:17;2.90;99.90
997;DHT22;487;50.126;8.698;2024-01-15T15:19:45;2.90;99.90
997;DHT22;487;50.126;8.698;2024-01-15T15:22:13;2.90;99.90
997;DHT22;487;50.126;8.698;2024-01-15T15:24:42;2.90;99.90
997;DHT22;487;50.126;8.698;2024-01-15T15:27:10;2.90;99.90
997;DHT22;487;50.126;8.698;2024-01-15T15:29:39;2.90;99.90
997;DHT22;487;50.126;8.698;2024-01-15T15:34:35;2.80;99.90
997;DHT22;487;50.126;8.698;2024-01-15T15:37:04;2.90;99.90
997;DHT22;487;50.126;8.698;2024-01-15T15:39:33;2.90;99.90
997;DHT22;487;50.126;8.698;2024-01-15T15:42:02;2.90;99.90
997;DHT22;487;50.126;8.698;2024-01-15T15:44:30;2.90;99.90
997;DHT22;487;50.126;8.698;2024-01-15T15:49:27;2.80;98.70
997;DHT22;487;50.126;8.698;2024-01-15T15:51:55;2.80;99.90
997;DHT22;487;50.126;8.698;2024-01-15T15:54:23;2.90;99.10
997;DHT22;487;50.126;8.698;2024-01-15T15:56:51;2.80;99.00
997;DHT22;487;50.126;8.698;2024-01-15T15:59:22;2.80;99.60
997;DHT22;487;50.126;8.698;2024-01-15T16:01:51;2.90;99.10
997;DHT22;487;50.126;8.698;2024-01-15T16:04:19;2.90;98.30
997;DHT22;487;50.126;8.698;2024-01-15T16:06:47;2.80;97.10
997;DHT22;487;50.126;8.698;2024-01-15T16:09:16;2.90;97.30
997;DHT22;487;50.126;8.698;2024-01-15T16:11:44;3.40;96.60
997;DHT22;487;50.126;8.698;2024-01-15T16:14:12;2.80;95.20
997;DHT22;487;50.126;8.698;2024-01-15T16:16:41;2.80;95.60
997;DHT22;487;50.126;8.698;2024-01-15T16:19:29;2.80;96.00
997;DHT22;487;50.126;8.698;2024-01-15T16:22:17;2.90;95.90
997;DHT22;487;50.126;8.698;2024-01-15T16:25:05;2.90;96.10
997;DHT22;487;50.126;8.698;2024-01-15T16:27:34;2.90;94.20
997;DHT22;487;50.126;8.698;2024-01-15T16:30:02;2.80;93.60
997;DHT22;487;50.126;8.698;2024-01-15T16:32:43;2.80;93.20
997;DHT22;487;50.126;8.698;2024-01-15T16:35:11;2.80;92.40
997;DHT22;487;50.126;8.698;2024-01-15T16:37:40;2.80;92.20
997;DHT22;487;50.126;8.698;2024-01-15T16:40:09;4.70;91.00
997;DHT22;487;50.126;8.698;2024-01-15T16:45:06;2.70;87.50
997;DHT22;487;50.126;8.698;2024-01-15T16:47:35;2.70;86.20
997;DHT22;487;50.126;8.698;2024-01-15T16:50:05;2.70;86.50
997;DHT22;487;50.126;8.698;2024-01-15T16:52:33;2.70;85.30
997;DHT22;487;50.126;8.698;2024-01-15T16:55:02;2.70;84.00
997;DHT22;487;50.126;8.698;2024-01-15T16:57:30;2.70;84.20
997;DHT22;487;50.126;8.698;2024-01-15T16:59:58;2.70;82.50
997;DHT22;487;50.126;8.698;2024-01-15T17:02:27;2.70;81.70
997;DHT22;487;50.126;8.698;2024-01-15T17:04:55;2.70;79.50
997;DHT22;487;50.126;8.698;2024-01-15T17:07:25;2.70;81.00
997;DHT22;487;50.126;8.698;2024-01-15T17:09:53;2.70;91.20
997;DHT22;487;50.126;8.698;2024-01-15T17:12:21;2.70;79.90
997;DHT22;487;50.126;8.698;2024-01-15T17:14:49;2.70;79.60
997;DHT22;487;50.126;8.698;2024-01-15T17:17:17;2.70;81.10
997;DHT22;487;50.126;8.698;2024-01-15T17:22:14;2.70;84.40
997;DHT22;487;50.126;8.698;2024-01-15T17:27:12;2.70;84.60
997;DHT22;487;50.126;8.698;2024-01-15T17:29:40;2.70;85.10